sensor_id;sensor_type;location;lat;lon;timestamp;pressure;altitude;pressure_sealevel;temperature;humidity
69239;BME280;56349;51.816;-0.026;2023-03-20T00:00:30;101174.30;;;24.60;30.72
69239;BME280;56349;51.816;-0.026;2023-03-20T00:02:47;101177.08;;;24.42;30.84
69239;BME280;56349;51.816;-0.026;2023-03-20T00:05:19;101184.04;;;24.47;30.98
69239;BME280;56349;51.816;-0.026;2023-03-20T00:07:39;101185.22;;;24.24;31.18
69239;BME280;56349;51.816;-0.026;2023-03-20T00:10:05;101184.34;;;24.00;31.38
69239;BME280;56349;51.816;-0.026;2023-03-20T00:12:30;101184.52;;;23.78;31.55
69239;BME280;56349;51.816;-0.026;2023-03-20T00:14:56;101183.26;;;23.78;31.76
69239;BME280;56349;51.816;-0.026;2023-03-20T00:17:21;101190.35;;;23.56;31.98
69239;BME280;56349;51.816;-0.026;2023-03-20T00:19:47;101195.38;;;23.55;32.19
69239;BME280;56349;51.816;-0.026;2023-03-20T00:22:13;101197.22;;;23.36;32.41
69239;BME280;56349;51.816;-0.026;2023-03-20T00:24:38;101200.05;;;23.44;32.60
69239;BME280;56349;51.816;-0.026;2023-03-20T00:27:04;101207.83;;;23.24;32.80
69239;BME280;56349;51.816;-0.026;2023-03-20T00:29:30;101211.16;;;22.80;32.98
69239;BME280;56349;51.816;-0.026;2023-03-20T00:31:55;101209.09;;;22.99;33.06
69239;BME280;56349;51.816;-0.026;2023-03-20T00:34:23;101205.22;;;22.86;33.19
69239;BME280;56349;51.816;-0.026;2023-03-20T00:36:47;101202.99;;;22.98;33.29
69239;BME280;56349;51.816;-0.026;2023-03-20T00:39:12;101200.92;;;22.63;33.45
69239;BME280;56349;51.816;-0.026;2023-03-20T00:41:41;101199.37;;;22.70;33.61
69239;BME280;56349;51.816;-0.026;2023-03-20T00:44:12;101201.26;;;22.74;33.88
69239;BME280;56349;51.816;-0.026;2023-03-20T00:46:35;101198.75;;;22.24;34.15
69239;BME280;56349;51.816;-0.026;2023-03-20T00:48:54;101193.39;;;22.06;34.35
69239;BME280;56349;51.816;-0.026;2023-03-20T00:51:20;101195.18;;;22.39;34.57
69239;BME280;56349;51.816;-0.026;2023-03-20T00:53:45;101192.15;;;22.00;34.76
69239;BME280;56349;51.816;-0.026;2023-03-20T00:56:27;101191.43;;;22.09;34.95
69239;BME280;56349;51.816;-0.026;2023-03-20T00:58:37;101192.19;;;21.95;35.14
69239;BME280;56349;51.816;-0.026;2023-03-20T01:01:02;101190.68;;;21.86;35.27
69239;BME280;56349;51.816;-0.026;2023-03-20T01:03:28;101189.56;;;21.76;35.38
69239;BME280;56349;51.816;-0.026;2023-03-20T01:05:53;101189.61;;;21.65;35.50
69239;BME280;56349;51.816;-0.026;2023-03-20T01:08:21;101191.63;;;21.76;35.65
69239;BME280;56349;51.816;-0.026;2023-03-20T01:10:45;101188.66;;;21.42;35.78
69239;BME280;56349;51.816;-0.026;2023-03-20T01:13:16;101185.79;;;21.51;35.95
69239;BME280;56349;51.816;-0.026;2023-03-20T01:15:35;101188.75;;;21.17;36.10
69239;BME280;56349;51.816;-0.026;2023-03-20T01:18:00;101187.42;;;21.29;36.19
69239;BME280;56349;51.816;-0.026;2023-03-20T01:20:28;101177.41;;;20.96;36.36
69239;BME280;56349;51.816;-0.026;2023-03-20T01:22:52;101175.44;;;21.10;36.48
69239;BME280;56349;51.816;-0.026;2023-03-20T01:25:18;101167.58;;;21.02;36.58
69239;BME280;56349;51.816;-0.026;2023-03-20T01:27:47;101171.72;;;20.93;36.70
69239;BME280;56349;51.816;-0.026;2023-03-20T01:30:16;101175.68;;;20.87;36.79
69239;BME280;56349;51.816;-0.026;2023-03-20T01:32:34;101173.52;;;20.80;36.89
69239;BME280;56349;51.816;-0.026;2023-03-20T01:34:59;101171.79;;;20.73;36.95
69239;BME280;56349;51.816;-0.026;2023-03-20T01:37:27;101171.51;;;20.92;37.07
69239;BME280;56349;51.816;-0.026;2023-03-20T01:39:51;101167.26;;;20.85;37.14
69239;BME280;56349;51.816;-0.026;2023-03-20T01:42:16;101167.69;;;20.80;37.22
69239;BME280;56349;51.816;-0.026;2023-03-20T01:44:42;101163.23;;;20.75;37.29
69239;BME280;56349;51.816;-0.026;2023-03-20T01:47:14;101165.12;;;20.72;37.32
69239;BME280;56349;51.816;-0.026;2023-03-20T01:51:57;101163.08;;;20.60;37.45
69239;BME280;56349;51.816;-0.026;2023-03-20T01:54:25;101161.29;;;20.30;37.52
69239;BME280;56349;51.816;-0.026;2023-03-20T01:56:51;101163.22;;;20.54;37.55
69239;BME280;56349;51.816;-0.026;2023-03-20T01:59:16;101163.09;;;20.50;37.59
69239;BME280;56349;51.816;-0.026;2023-03-20T02:01:40;101161.61;;;20.44;37.66
69239;BME280;56349;51.816;-0.026;2023-03-20T02:04:04;101157.42;;;20.41;37.71
69239;BME280;56349;51.816;-0.026;2023-03-20T02:06:29;101153.34;;;20.35;37.76
69239;BME280;56349;51.816;-0.026;2023-03-20T02:08:55;101147.28;;;20.31;37.83
69239;BME280;56349;51.816;-0.026;2023-03-20T02:11:23;101149.31;;;20.49;37.87
69239;BME280;56349;51.816;-0.026;2023-03-20T02:13:48;101148.90;;;20.23;37.93
69239;BME280;56349;51.816;-0.026;2023-03-20T02:16:14;101139.92;;;20.18;37.99
69239;BME280;56349;51.816;-0.026;2023-03-20T02:18:40;101141.21;;;20.34;38.05
69239;BME280;56349;51.816;-0.026;2023-03-20T02:26:06;101135.71;;;19.99;38.21
69239;BME280;56349;51.816;-0.026;2023-03-20T02:30:58;101129.40;;;20.13;38.28
69239;BME280;56349;51.816;-0.026;2023-03-20T02:33:24;101124.13;;;19.88;38.33
69239;BME280;56349;51.816;-0.026;2023-03-20T02:40:34;101112.53;;;20.24;38.41
69239;BME280;56349;51.816;-0.026;2023-03-20T02:42:59;101109.90;;;19.98;38.47
69239;BME280;56349;51.816;-0.026;2023-03-20T02:45:26;101104.86;;;19.96;38.48
69239;BME280;56349;51.816;-0.026;2023-03-20T02:47:50;101101.94;;;20.14;38.52
69239;BME280;56349;51.816;-0.026;2023-03-20T02:50:15;101100.44;;;20.13;38.53
69239;BME280;56349;51.816;-0.026;2023-03-20T02:52:44;101093.20;;;19.88;38.56
69239;BME280;56349;51.816;-0.026;2023-03-20T02:55:13;101088.31;;;19.64;38.58
69239;BME280;56349;51.816;-0.026;2023-03-20T02:57:38;101088.17;;;19.84;38.58
69239;BME280;56349;51.816;-0.026;2023-03-20T02:59:57;101083.10;;;19.82;38.61
69239;BME280;56349;51.816;-0.026;2023-03-20T03:02:22;101082.23;;;19.79;38.62
69239;BME280;56349;51.816;-0.026;2023-03-20T03:04:50;101079.28;;;19.76;38.66
69239;BME280;56349;51.816;-0.026;2023-03-20T03:07:13;101074.54;;;19.73;38.67
69239;BME280;56349;51.816;-0.026;2023-03-20T03:09:39;101068.93;;;19.94;38.69
69239;BME280;56349;51.816;-0.026;2023-03-20T03:12:05;101068.76;;;19.67;38.74
69239;BME280;56349;51.816;-0.026;2023-03-20T03:14:30;101071.56;;;19.44;38.73
69239;BME280;56349;51.816;-0.026;2023-03-20T03:16:52;101074.99;;;19.89;38.73
69239;BME280;56349;51.816;-0.026;2023-03-20T03:19:21;101072.40;;;19.86;38.72
69239;BME280;56349;51.816;-0.026;2023-03-20T03:21:46;101077.40;;;19.82;38.76
69239;BME280;56349;51.816;-0.026;2023-03-20T03:24:20;101081.45;;;19.80;38.77
69239;BME280;56349;51.816;-0.026;2023-03-20T03:26:37;101084.92;;;19.76;38.81
69239;BME280;56349;51.816;-0.026;2023-03-20T03:29:03;101087.88;;;19.74;38.82
69239;BME280;56349;51.816;-0.026;2023-03-20T03:31:26;101086.72;;;19.73;38.85
69239;BME280;56349;51.816;-0.026;2023-03-20T03:33:54;101088.29;;;19.48;38.85
69239;BME280;56349;51.816;-0.026;2023-03-20T03:36:25;101083.52;;;19.68;38.85
69239;BME280;56349;51.816;-0.026;2023-03-20T03:38:48;101079.93;;;19.65;38.92
69239;BME280;56349;51.816;-0.026;2023-03-20T03:41:17;101076.91;;;19.65;38.90
69239;BME280;56349;51.816;-0.026;2023-03-20T03:43:38;101076.51;;;19.62;38.93
69239;BME280;56349;51.816;-0.026;2023-03-20T03:46:03;101075.55;;;19.61;38.92
69239;BME280;56349;51.816;-0.026;2023-03-20T03:48:29;101075.57;;;19.59;38.93
69239;BME280;56349;51.816;-0.026;2023-03-20T03:50:53;101071.86;;;19.57;38.93
69239;BME280;56349;51.816;-0.026;2023-03-20T03:53:21;101072.94;;;19.57;38.94
69239;BME280;56349;51.816;-0.026;2023-03-20T03:55:46;101068.15;;;19.31;38.98
69239;BME280;56349;51.816;-0.026;2023-03-20T03:58:11;101070.64;;;19.78;38.98
69239;BME280;56349;51.816;-0.026;2023-03-20T04:00:34;101069.50;;;19.50;38.99
69239;BME280;56349;51.816;-0.026;2023-03-20T04:03:01;101065.29;;;19.49;38.98
69239;BME280;56349;51.816;-0.026;2023-03-20T04:05:29;101068.94;;;19.75;38.98
69239;BME280;56349;51.816;-0.026;2023-03-20T04:07:55;101070.70;;;19.46;38.98
69239;BME280;56349;51.816;-0.026;2023-03-20T04:10:18;101070.29;;;19.45;39.00
69239;BME280;56349;51.816;-0.026;2023-03-20T04:12:44;101063.17;;;19.42;39.01
69239;BME280;56349;51.816;-0.026;2023-03-20T04:15:10;101053.56;;;19.41;39.01
69239;BME280;56349;51.816;-0.026;2023-03-20T04:17:35;101052.61;;;19.39;39.03
69239;BME280;56349;51.816;-0.026;2023-03-20T04:20:02;101051.37;;;19.38;39.03
69239;BME280;56349;51.816;-0.026;2023-03-20T04:22:26;101057.70;;;19.37;39.01
69239;BME280;56349;51.816;-0.026;2023-03-20T04:24:52;101055.74;;;19.36;39.01
69239;BME280;56349;51.816;-0.026;2023-03-20T04:27:18;101053.89;;;19.36;39.00
69239;BME280;56349;51.816;-0.026;2023-03-20T04:29:44;101051.91;;;19.34;39.02
69239;BME280;56349;51.816;-0.026;2023-03-20T04:32:10;101049.63;;;19.32;39.06
69239;BME280;56349;51.816;-0.026;2023-03-20T04:34:36;101046.20;;;19.33;39.11
69239;BME280;56349;51.816;-0.026;2023-03-20T04:37:01;101041.47;;;19.65;39.09
69239;BME280;56349;51.816;-0.026;2023-03-20T04:39:27;101038.69;;;19.48;39.04
69239;BME280;56349;51.816;-0.026;2023-03-20T04:41:54;101036.13;;;19.37;38.97
69239;BME280;56349;51.816;-0.026;2023-03-20T04:44:18;101036.25;;;19.52;38.85
69239;BME280;56349;51.816;-0.026;2023-03-20T04:46:44;101040.63;;;19.92;38.69
69239;BME280;56349;51.816;-0.026;2023-03-20T04:49:10;101041.51;;;19.88;38.50
69239;BME280;56349;51.816;-0.026;2023-03-20T04:51:35;101042.20;;;19.83;38.27
69239;BME280;56349;51.816;-0.026;2023-03-20T04:54:01;101036.34;;;20.23;37.99
69239;BME280;56349;51.816;-0.026;2023-03-20T04:56:26;101031.47;;;19.89;37.78
69239;BME280;56349;51.816;-0.026;2023-03-20T04:58:52;101031.71;;;20.29;37.56
69239;BME280;56349;51.816;-0.026;2023-03-20T05:01:18;101029.93;;;20.13;37.37
69239;BME280;56349;51.816;-0.026;2023-03-20T05:03:43;101027.09;;;20.45;37.20
69239;BME280;56349;51.816;-0.026;2023-03-20T05:06:09;101030.19;;;20.48;37.10
69239;BME280;56349;51.816;-0.026;2023-03-20T05:08:35;101026.60;;;20.49;37.09
69239;BME280;56349;51.816;-0.026;2023-03-20T05:11:00;101028.44;;;20.50;37.11
69239;BME280;56349;51.816;-0.026;2023-03-20T05:13:26;101030.22;;;20.51;37.16
69239;BME280;56349;51.816;-0.026;2023-03-20T05:15:52;101025.21;;;20.52;37.18
69239;BME280;56349;51.816;-0.026;2023-03-20T05:18:18;101019.74;;;20.58;37.22
69239;BME280;56349;51.816;-0.026;2023-03-20T05:20:43;101013.39;;;20.33;37.35
69239;BME280;56349;51.816;-0.026;2023-03-20T05:23:09;101018.20;;;20.61;37.45
69239;BME280;56349;51.816;-0.026;2023-03-20T05:25:35;101020.95;;;20.63;37.61
69239;BME280;56349;51.816;-0.026;2023-03-20T05:28:00;101023.33;;;20.63;37.80
69239;BME280;56349;51.816;-0.026;2023-03-20T05:30:26;101023.69;;;20.85;38.00
69239;BME280;56349;51.816;-0.026;2023-03-20T05:32:52;101025.55;;;20.62;38.20
69239;BME280;56349;51.816;-0.026;2023-03-20T05:35:18;101024.53;;;20.62;38.35
69239;BME280;56349;51.816;-0.026;2023-03-20T05:37:43;101022.86;;;20.65;38.44
69239;BME280;56349;51.816;-0.026;2023-03-20T05:40:11;101023.24;;;20.39;38.56
69239;BME280;56349;51.816;-0.026;2023-03-20T05:42:34;101021.28;;;20.67;38.64
69239;BME280;56349;51.816;-0.026;2023-03-20T05:45:00;101021.27;;;20.45;38.74
69239;BME280;56349;51.816;-0.026;2023-03-20T05:47:25;101022.13;;;20.74;38.79
69239;BME280;56349;51.816;-0.026;2023-03-20T05:49:51;101022.01;;;20.77;38.85
69239;BME280;56349;51.816;-0.026;2023-03-20T05:52:16;101022.07;;;20.53;38.90
69239;BME280;56349;51.816;-0.026;2023-03-20T05:54:42;101030.16;;;20.84;38.94
69239;BME280;56349;51.816;-0.026;2023-03-20T05:57:08;101032.84;;;20.89;38.95
69239;BME280;56349;51.816;-0.026;2023-03-20T05:59:34;101033.38;;;20.94;38.97
69239;BME280;56349;51.816;-0.026;2023-03-20T06:01:59;101032.43;;;20.50;38.95
69239;BME280;56349;51.816;-0.026;2023-03-20T06:04:24;101028.44;;;21.09;38.89
69239;BME280;56349;51.816;-0.026;2023-03-20T06:06:50;101031.94;;;20.84;38.89
69239;BME280;56349;51.816;-0.026;2023-03-20T06:09:15;101034.80;;;21.12;38.95
69239;BME280;56349;51.816;-0.026;2023-03-20T06:11:41;101036.55;;;21.13;38.96
69239;BME280;56349;51.816;-0.026;2023-03-20T06:14:06;101033.01;;;21.16;38.98
69239;BME280;56349;51.816;-0.026;2023-03-20T06:16:32;101034.78;;;21.19;39.00
69239;BME280;56349;51.816;-0.026;2023-03-20T06:18:58;101038.99;;;20.96;38.99
69239;BME280;56349;51.816;-0.026;2023-03-20T06:21:23;101042.45;;;21.26;38.98
69239;BME280;56349;51.816;-0.026;2023-03-20T06:23:49;101045.64;;;21.04;38.94
69239;BME280;56349;51.816;-0.026;2023-03-20T06:26:15;101045.71;;;21.09;38.89
69239;BME280;56349;51.816;-0.026;2023-03-20T06:28:40;101045.78;;;21.39;38.83
69239;BME280;56349;51.816;-0.026;2023-03-20T06:31:06;101042.00;;;21.39;38.79
69239;BME280;56349;51.816;-0.026;2023-03-20T06:33:32;101043.74;;;21.39;38.74
69239;BME280;56349;51.816;-0.026;2023-03-20T06:35:57;101039.42;;;21.14;38.67
69239;BME280;56349;51.816;-0.026;2023-03-20T06:38:23;101047.59;;;21.14;38.61
69239;BME280;56349;51.816;-0.026;2023-03-20T06:40:49;101047.75;;;21.14;38.52
69239;BME280;56349;51.816;-0.026;2023-03-20T06:43:14;101045.30;;;21.14;38.46
69239;BME280;56349;51.816;-0.026;2023-03-20T06:45:40;101048.10;;;21.40;38.40
69239;BME280;56349;51.816;-0.026;2023-03-20T06:48:06;101050.64;;;21.38;38.33
69239;BME280;56349;51.816;-0.026;2023-03-20T06:50:31;101053.12;;;21.37;38.28
69239;BME280;56349;51.816;-0.026;2023-03-20T06:52:57;101050.41;;;21.36;38.22
69239;BME280;56349;51.816;-0.026;2023-03-20T06:55:22;101052.73;;;21.07;38.17
69239;BME280;56349;51.816;-0.026;2023-03-20T06:57:48;101053.65;;;21.03;38.13
69239;BME280;56349;51.816;-0.026;2023-03-20T07:00:15;101054.78;;;21.02;38.07
69239;BME280;56349;51.816;-0.026;2023-03-20T07:02:39;101051.89;;;21.25;38.05
69239;BME280;56349;51.816;-0.026;2023-03-20T07:05:06;101049.56;;;20.97;38.00
69239;BME280;56349;51.816;-0.026;2023-03-20T07:07:30;101046.65;;;20.94;37.96
69239;BME280;56349;51.816;-0.026;2023-03-20T07:09:55;101050.22;;;20.92;37.92
69239;BME280;56349;51.816;-0.026;2023-03-20T07:12:21;101050.33;;;21.17;37.89
69239;BME280;56349;51.816;-0.026;2023-03-20T07:14:47;101048.02;;;21.13;37.87
69239;BME280;56349;51.816;-0.026;2023-03-20T07:17:12;101045.64;;;21.09;37.88
69239;BME280;56349;51.816;-0.026;2023-03-20T07:19:39;101046.94;;;21.05;37.88
69239;BME280;56349;51.816;-0.026;2023-03-20T07:22:05;101050.36;;;20.76;37.86
69239;BME280;56349;51.816;-0.026;2023-03-20T07:24:28;101046.53;;;21.01;37.85
69239;BME280;56349;51.816;-0.026;2023-03-20T07:26:54;101049.52;;;20.98;37.84
69239;BME280;56349;51.816;-0.026;2023-03-20T07:29:20;101054.58;;;20.97;37.74
69239;BME280;56349;51.816;-0.026;2023-03-20T07:31:45;101054.87;;;20.97;37.69
69239;BME280;56349;51.816;-0.026;2023-03-20T07:34:11;101049.94;;;20.96;37.72
69239;BME280;56349;51.816;-0.026;2023-03-20T07:36:36;101050.88;;;20.98;37.75
69239;BME280;56349;51.816;-0.026;2023-03-20T07:39:02;101046.92;;;20.72;37.78
69239;BME280;56349;51.816;-0.026;2023-03-20T07:41:27;101050.23;;;20.99;37.86
69239;BME280;56349;51.816;-0.026;2023-03-20T07:43:53;101047.87;;;20.76;37.88
69239;BME280;56349;51.816;-0.026;2023-03-20T07:46:19;101042.44;;;20.79;37.90
69239;BME280;56349;51.816;-0.026;2023-03-20T07:48:44;101042.40;;;21.07;37.96
69239;BME280;56349;51.816;-0.026;2023-03-20T07:51:10;101037.31;;;21.13;38.05
69239;BME280;56349;51.816;-0.026;2023-03-20T07:53:36;101039.42;;;20.95;38.10
69239;BME280;56349;51.816;-0.026;2023-03-20T07:56:01;101045.32;;;21.08;38.13
69239;BME280;56349;51.816;-0.026;2023-03-20T07:58:27;101046.54;;;21.26;38.08
69239;BME280;56349;51.816;-0.026;2023-03-20T08:00:52;101048.43;;;21.26;37.94
69239;BME280;56349;51.816;-0.026;2023-03-20T08:03:18;101046.86;;;21.74;37.75
69239;BME280;56349;51.816;-0.026;2023-03-20T08:05:44;101050.15;;;21.80;37.49
69239;BME280;56349;51.816;-0.026;2023-03-20T08:08:09;101049.34;;;21.85;37.20
69239;BME280;56349;51.816;-0.026;2023-03-20T08:10:35;101051.35;;;22.38;36.90
69239;BME280;56349;51.816;-0.026;2023-03-20T08:13:00;101054.06;;;22.19;36.55
69239;BME280;56349;51.816;-0.026;2023-03-20T08:15:26;101047.49;;;22.48;36.25
69239;BME280;56349;51.816;-0.026;2023-03-20T08:17:52;101047.59;;;22.76;35.92
69239;BME280;56349;51.816;-0.026;2023-03-20T08:20:17;101046.27;;;22.54;35.63
69239;BME280;56349;51.816;-0.026;2023-03-20T08:22:43;101043.20;;;22.81;35.31
69239;BME280;56349;51.816;-0.026;2023-03-20T08:25:10;101043.72;;;23.08;34.99
69239;BME280;56349;51.816;-0.026;2023-03-20T08:27:34;101035.22;;;23.35;34.66
69239;BME280;56349;51.816;-0.026;2023-03-20T08:30:00;101038.06;;;23.55;34.41
69239;BME280;56349;51.816;-0.026;2023-03-20T08:32:26;101032.47;;;23.55;34.15
69239;BME280;56349;51.816;-0.026;2023-03-20T08:34:51;101029.23;;;23.98;33.91
69239;BME280;56349;51.816;-0.026;2023-03-20T08:37:17;101029.46;;;23.95;33.67
69239;BME280;56349;51.816;-0.026;2023-03-20T08:39:43;101028.16;;;23.92;33.44
69239;BME280;56349;51.816;-0.026;2023-03-20T08:42:08;101029.25;;;24.15;33.20
69239;BME280;56349;51.816;-0.026;2023-03-20T08:44:34;101027.94;;;24.36;32.92
69239;BME280;56349;51.816;-0.026;2023-03-20T08:47:00;101036.19;;;24.54;32.63
69239;BME280;56349;51.816;-0.026;2023-03-20T08:49:25;101041.56;;;24.74;32.53
69239;BME280;56349;51.816;-0.026;2023-03-20T08:51:51;101038.47;;;24.63;32.33
69239;BME280;56349;51.816;-0.026;2023-03-20T08:54:17;101038.11;;;24.78;32.13
69239;BME280;56349;51.816;-0.026;2023-03-20T08:56:42;101045.01;;;24.94;31.94
69239;BME280;56349;51.816;-0.026;2023-03-20T08:59:08;101046.85;;;25.05;31.77
69239;BME280;56349;51.816;-0.026;2023-03-20T09:01:33;101048.87;;;24.95;31.63
69239;BME280;56349;51.816;-0.026;2023-03-20T09:03:59;101046.87;;;25.05;31.48
69239;BME280;56349;51.816;-0.026;2023-03-20T09:06:25;101055.09;;;25.18;31.32
69239;BME280;56349;51.816;-0.026;2023-03-20T09:08:50;101054.05;;;25.26;31.19
69239;BME280;56349;51.816;-0.026;2023-03-20T09:11:16;101056.49;;;25.56;31.06
69239;BME280;56349;51.816;-0.026;2023-03-20T09:13:41;101060.79;;;25.20;30.94
69239;BME280;56349;51.816;-0.026;2023-03-20T09:16:08;101058.88;;;25.49;30.84
69239;BME280;56349;51.816;-0.026;2023-03-20T09:18:32;101064.28;;;25.58;30.73
69239;BME280;56349;51.816;-0.026;2023-03-20T09:20:58;101060.10;;;25.64;30.64
69239;BME280;56349;51.816;-0.026;2023-03-20T09:23:24;101055.68;;;25.49;30.51
69239;BME280;56349;51.816;-0.026;2023-03-20T09:25:49;101053.27;;;25.74;30.03
69239;BME280;56349;51.816;-0.026;2023-03-20T09:28:15;101053.80;;;25.76;29.84
69239;BME280;56349;51.816;-0.026;2023-03-20T09:30:41;101052.54;;;25.73;29.92
69239;BME280;56349;51.816;-0.026;2023-03-20T09:33:07;101052.48;;;25.52;29.77
69239;BME280;56349;51.816;-0.026;2023-03-20T09:35:32;101056.21;;;25.52;29.59
69239;BME280;56349;51.816;-0.026;2023-03-20T09:37:58;101053.58;;;25.52;29.46
69239;BME280;56349;51.816;-0.026;2023-03-20T09:40:27;101057.80;;;25.51;29.37
69239;BME280;56349;51.816;-0.026;2023-03-20T09:42:54;101054.83;;;25.73;29.28
69239;BME280;56349;51.816;-0.026;2023-03-20T09:45:19;101055.96;;;25.72;29.21
69239;BME280;56349;51.816;-0.026;2023-03-20T09:47:47;101050.42;;;25.19;29.18
69239;BME280;56349;51.816;-0.026;2023-03-20T09:50:16;101049.36;;;25.66;29.12
69239;BME280;56349;51.816;-0.026;2023-03-20T09:52:33;101052.78;;;25.45;29.07
69239;BME280;56349;51.816;-0.026;2023-03-20T09:54:58;101052.57;;;25.66;29.01
69239;BME280;56349;51.816;-0.026;2023-03-20T09:57:26;101056.57;;;25.64;28.93
69239;BME280;56349;51.816;-0.026;2023-03-20T09:59:48;101058.32;;;25.65;28.87
69239;BME280;56349;51.816;-0.026;2023-03-20T10:02:15;101055.65;;;25.44;28.83
69239;BME280;56349;51.816;-0.026;2023-03-20T10:04:39;101051.36;;;25.47;28.91
69239;BME280;56349;51.816;-0.026;2023-03-20T10:07:05;101055.84;;;25.54;28.84
69239;BME280;56349;51.816;-0.026;2023-03-20T10:09:30;101053.92;;;25.58;28.80
69239;BME280;56349;51.816;-0.026;2023-03-20T10:12:07;101050.58;;;25.63;28.76
69239;BME280;56349;51.816;-0.026;2023-03-20T10:14:27;101051.29;;;25.95;28.81
69239;BME280;56349;51.816;-0.026;2023-03-20T10:16:59;101046.77;;;25.89;28.68
69239;BME280;56349;51.816;-0.026;2023-03-20T10:19:20;101043.05;;;25.47;28.78
69239;BME280;56349;51.816;-0.026;2023-03-20T10:21:42;101039.41;;;25.78;28.76
69239;BME280;56349;51.816;-0.026;2023-03-20T10:24:05;101034.90;;;25.82;28.77
69239;BME280;56349;51.816;-0.026;2023-03-20T10:26:34;101026.71;;;25.91;28.76
69239;BME280;56349;51.816;-0.026;2023-03-20T10:28:57;101028.95;;;26.01;28.71
69239;BME280;56349;51.816;-0.026;2023-03-20T10:31:28;101033.27;;;26.12;28.65
69239;BME280;56349;51.816;-0.026;2023-03-20T10:33:54;101036.27;;;26.17;28.59
69239;BME280;56349;51.816;-0.026;2023-03-20T10:36:22;101039.80;;;26.21;28.55
69239;BME280;56349;51.816;-0.026;2023-03-20T10:38:42;101037.56;;;26.24;28.53
69239;BME280;56349;51.816;-0.026;2023-03-20T10:41:03;101030.29;;;26.31;28.49
69239;BME280;56349;51.816;-0.026;2023-03-20T10:43:30;101024.29;;;26.33;28.47
69239;BME280;56349;51.816;-0.026;2023-03-20T10:45:58;101023.64;;;26.36;28.46
69239;BME280;56349;51.816;-0.026;2023-03-20T10:48:23;101018.33;;;26.38;28.44
69239;BME280;56349;51.816;-0.026;2023-03-20T10:50:46;101011.22;;;26.40;28.39
69239;BME280;56349;51.816;-0.026;2023-03-20T10:53:19;101012.43;;;26.43;28.32
69239;BME280;56349;51.816;-0.026;2023-03-20T10:55:37;101015.22;;;26.37;28.29
69239;BME280;56349;51.816;-0.026;2023-03-20T10:58:04;101016.16;;;26.31;28.33
69239;BME280;56349;51.816;-0.026;2023-03-20T11:00:26;101023.62;;;26.24;28.39
69239;BME280;56349;51.816;-0.026;2023-03-20T11:02:52;101021.76;;;26.14;28.47
69239;BME280;56349;51.816;-0.026;2023-03-20T11:05:22;101015.77;;;26.05;28.57
69239;BME280;56349;51.816;-0.026;2023-03-20T11:07:44;101011.99;;;26.00;28.63
69239;BME280;56349;51.816;-0.026;2023-03-20T11:10:12;101010.65;;;25.98;28.67
69239;BME280;56349;51.816;-0.026;2023-03-20T11:12:36;101014.28;;;26.22;28.73
69239;BME280;56349;51.816;-0.026;2023-03-20T11:15:02;101011.70;;;25.92;28.77
69239;BME280;56349;51.816;-0.026;2023-03-20T11:17:28;101017.98;;;25.86;28.84
69239;BME280;56349;51.816;-0.026;2023-03-20T11:19:51;101020.80;;;26.28;28.91
69239;BME280;56349;51.816;-0.026;2023-03-20T11:22:23;101022.35;;;26.02;28.97
69239;BME280;56349;51.816;-0.026;2023-03-20T11:24:45;101023.39;;;26.21;29.01
69239;BME280;56349;51.816;-0.026;2023-03-20T11:27:09;101018.76;;;25.71;29.03
69239;BME280;56349;51.816;-0.026;2023-03-20T11:29:33;101024.26;;;25.97;29.06
69239;BME280;56349;51.816;-0.026;2023-03-20T11:32:05;101022.99;;;25.71;29.06
69239;BME280;56349;51.816;-0.026;2023-03-20T11:34:28;101022.02;;;26.20;29.06
69239;BME280;56349;51.816;-0.026;2023-03-20T11:36:55;101024.09;;;26.01;29.05
69239;BME280;56349;51.816;-0.026;2023-03-20T11:39:21;101022.59;;;25.78;29.02
69239;BME280;56349;51.816;-0.026;2023-03-20T11:41:46;101019.35;;;25.80;29.00
69239;BME280;56349;51.816;-0.026;2023-03-20T11:46:33;101012.76;;;25.85;28.91
69239;BME280;56349;51.816;-0.026;2023-03-20T11:49:05;101021.26;;;25.91;28.85
69239;BME280;56349;51.816;-0.026;2023-03-20T11:51:25;101024.18;;;25.95;28.82
69239;BME280;56349;51.816;-0.026;2023-03-20T11:53:59;101021.06;;;26.01;28.74
69239;BME280;56349;51.816;-0.026;2023-03-20T11:56:21;101021.21;;;26.02;28.66
69239;BME280;56349;51.816;-0.026;2023-03-20T12:01:08;101015.96;;;25.83;28.21
69239;BME280;56349;51.816;-0.026;2023-03-20T12:03:39;101009.56;;;26.02;28.00
69239;BME280;56349;51.816;-0.026;2023-03-20T12:05:59;101013.74;;;26.38;27.85
69239;BME280;56349;51.816;-0.026;2023-03-20T12:08:26;101008.18;;;26.41;27.79
69239;BME280;56349;51.816;-0.026;2023-03-20T12:10:52;101007.89;;;26.48;27.85
69239;BME280;56349;51.816;-0.026;2023-03-20T12:13:16;101008.58;;;26.31;27.97
69239;BME280;56349;51.816;-0.026;2023-03-20T12:15:43;101013.87;;;26.21;28.02
69239;BME280;56349;51.816;-0.026;2023-03-20T12:18:09;101011.02;;;26.13;28.07
69239;BME280;56349;51.816;-0.026;2023-03-20T12:20:37;101009.03;;;26.06;28.12
69239;BME280;56349;51.816;-0.026;2023-03-20T12:23:07;101010.60;;;26.00;28.15
69239;BME280;56349;51.816;-0.026;2023-03-20T12:25:25;101005.73;;;25.93;28.17
69239;BME280;56349;51.816;-0.026;2023-03-20T12:27:55;101011.53;;;25.91;28.16
69239;BME280;56349;51.816;-0.026;2023-03-20T12:30:18;101008.43;;;25.86;28.19
69239;BME280;56349;51.816;-0.026;2023-03-20T12:32:45;101007.25;;;25.82;28.27
69239;BME280;56349;51.816;-0.026;2023-03-20T12:35:11;101005.43;;;25.84;28.25
69239;BME280;56349;51.816;-0.026;2023-03-20T12:37:32;101005.03;;;25.82;28.20
69239;BME280;56349;51.816;-0.026;2023-03-20T12:39:59;101006.51;;;25.83;28.19
69239;BME280;56349;51.816;-0.026;2023-03-20T12:42:33;101006.29;;;25.91;28.17
69239;BME280;56349;51.816;-0.026;2023-03-20T12:44:53;101003.10;;;26.23;28.12
69239;BME280;56349;51.816;-0.026;2023-03-20T12:47:26;101002.73;;;25.96;28.09
69239;BME280;56349;51.816;-0.026;2023-03-20T12:49:49;100999.21;;;25.98;28.07